createdAt,value
2022-08-18T00:01:05.700Z,71.65
2022-08-18T00:03:56.110Z,73.31
2022-08-18T00:06:19.653Z,72.33
2022-08-18T00:08:46.177Z,71.46
2022-08-18T00:11:12.691Z,70.48
2022-08-18T00:13:39.106Z,71.57
2022-08-18T00:16:05.762Z,70.91
2022-08-18T00:18:32.214Z,72.30
2022-08-18T00:20:58.624Z,73.66
2022-08-18T00:23:25.063Z,74.32
2022-08-18T00:25:52.258Z,74.88
2022-08-18T00:28:19.352Z,76.10
2022-08-18T00:30:50.433Z,76.07
2022-08-18T00:33:21.277Z,76.17
2022-08-18T00:35:48.017Z,76.58
2022-08-18T00:38:25.037Z,76.37
2022-08-18T00:40:54.163Z,76.70
2022-08-18T00:43:33.117Z,77.11
2022-08-18T00:46:00.678Z,77.72
2022-08-18T00:48:28.735Z,77.36
2022-08-18T00:51:02.004Z,77.58
2022-08-18T00:53:34.773Z,78.21
2022-08-18T00:56:08.487Z,78.04
2022-08-18T00:58:43.897Z,77.94
2022-08-18T01:01:12.624Z,79.05
2022-08-18T01:03:42.579Z,78.57
2022-08-18T01:06:21.649Z,77.90
2022-08-18T01:08:48.211Z,77.89
2022-08-18T01:11:15.025Z,77.60
2022-08-18T01:13:42.960Z,76.96
2022-08-18T01:16:28.436Z,77.70
2022-08-18T01:19:13.247Z,77.56
2022-08-18T01:21:51.861Z,76.96
2022-08-18T01:24:22.088Z,76.95
2022-08-18T01:26:52.245Z,75.89
2022-08-18T01:29:19.642Z,75.43
2022-08-18T01:31:55.573Z,76.33
2022-08-18T01:34:25.390Z,76.00
2022-08-18T01:36:52.499Z,76.67
2022-08-18T01:41:22.151Z,77.80
2022-08-18T01:42:06.670Z,78.13
2022-08-18T01:44:33.774Z,77.34
2022-08-18T01:47:00.301Z,78.85
2022-08-18T01:49:28.752Z,78.66
2022-08-18T01:51:55.792Z,77.84
2022-08-18T01:54:22.790Z,77.69
2022-08-18T01:56:49.421Z,77.90
2022-08-18T01:59:16.251Z,78.46
2022-08-18T02:01:50.485Z,78.06
2022-08-18T02:04:35.732Z,77.58
2022-08-18T02:07:07.302Z,75.85
2022-08-18T02:09:34.363Z,76.07
2022-08-18T02:12:01.235Z,75.67
2022-08-18T02:14:27.777Z,76.94
2022-08-18T02:17:02.094Z,76.61
2022-08-18T02:19:36.857Z,75.16
2022-08-18T02:22:04.725Z,73.96
2022-08-18T02:24:31.308Z,75.31
2022-08-18T02:26:57.900Z,75.09
2022-08-18T02:29:24.546Z,74.18
2022-08-18T02:31:51.100Z,73.82
2022-08-18T02:34:17.728Z,73.04
2022-08-18T02:36:44.524Z,73.18
2022-08-18T02:39:11.208Z,73.67
2022-08-18T02:41:37.605Z,73.69
2022-08-18T02:44:07.502Z,72.27
2022-08-18T02:46:34.387Z,73.99
2022-08-18T02:49:01.505Z,73.43
2022-08-18T02:51:28.216Z,74.24
2022-08-18T02:53:54.813Z,73.91
2022-08-18T02:56:40.504Z,74.17
2022-08-18T02:59:11.890Z,74.85
2022-08-18T03:01:41.453Z,77.03
2022-08-18T03:04:10.225Z,75.72
2022-08-18T03:06:38.761Z,76.52
2022-08-18T03:09:07.078Z,77.90
2022-08-18T03:11:33.552Z,77.02
2022-08-18T03:14:01.172Z,79.01
2022-08-18T03:16:32.661Z,79.44
2022-08-18T03:19:01.119Z,79.43
2022-08-18T03:21:29.748Z,79.07
2022-08-18T03:24:00.243Z,77.77
2022-08-18T03:26:29.939Z,76.76
2022-08-18T03:28:57.720Z,76.73
2022-08-18T03:31:27.752Z,79.09
2022-08-18T03:33:59.308Z,81.35
2022-08-18T03:36:33.920Z,83.42
2022-08-18T03:39:07.333Z,83.08
2022-08-18T03:41:44.455Z,84.00
2022-08-18T03:44:22.283Z,85.37
2022-08-18T03:46:51.770Z,86.55
2022-08-18T03:49:20.331Z,87.23
2022-08-18T03:51:47.396Z,84.58
2022-08-18T03:54:16.500Z,84.34
2022-08-18T03:56:44.514Z,84.30
2022-08-18T03:59:17.862Z,85.60
2022-08-18T04:01:46.080Z,86.27
2022-08-18T04:04:16.301Z,88.04
2022-08-18T04:06:50.071Z,84.86
2022-08-18T04:09:17.954Z,86.11
2022-08-18T04:11:45.788Z,86.42
2022-08-18T04:14:14.453Z,85.51
2022-08-18T04:16:41.918Z,88.11
2022-08-18T04:19:10.071Z,89.37
2022-08-18T04:21:39.368Z,87.74
2022-08-18T04:24:07.479Z,88.63
2022-08-18T04:26:37.555Z,86.83
2022-08-18T04:29:06.056Z,87.50
2022-08-18T04:31:32.626Z,86.61
2022-08-18T04:34:00.701Z,87.56
2022-08-18T04:36:29.360Z,87.91
2022-08-18T04:38:56.427Z,91.42
2022-08-18T04:41:27.287Z,91.41
2022-08-18T04:43:58.797Z,94.49
2022-08-18T04:46:27.103Z,94.89
2022-08-18T04:48:58.997Z,95.17
2022-08-18T04:52:38.749Z,95.53
2022-08-18T04:54:15.974Z,95.81
2022-08-18T04:56:42.397Z,95.27
2022-08-18T04:59:11.987Z,95.55
2022-08-18T05:01:45.390Z,95.72
2022-08-18T05:04:14.432Z,96.75
2022-08-18T05:06:43.353Z,96.14
2022-08-18T05:09:12.220Z,95.65
2022-08-18T05:11:39.139Z,95.44
2022-08-18T05:14:08.270Z,98.33
2022-08-18T05:16:47.746Z,97.78
2022-08-18T05:19:19.378Z,96.71
2022-08-18T05:21:46.249Z,97.11
2022-08-18T05:24:17.421Z,97.27
2022-08-18T05:26:45.744Z,97.38
2022-08-18T05:29:18.938Z,95.99
2022-08-18T05:31:46.854Z,97.37
2022-08-18T05:34:13.311Z,96.12
2022-08-18T05:37:00.151Z,93.95
2022-08-18T05:39:40.336Z,93.81
2022-08-18T05:42:18.588Z,92.35
2022-08-18T05:44:48.807Z,92.19
2022-08-18T05:47:35.468Z,92.39
2022-08-18T05:50:10.393Z,91.84
2022-08-18T05:52:50.116Z,93.52
2022-08-18T05:55:58.815Z,93.81
2022-08-18T05:58:33.586Z,94.38
2022-08-18T06:01:09.072Z,94.26
2022-08-18T06:03:53.950Z,95.38
2022-08-18T06:06:29.850Z,94.86
2022-08-18T06:09:10.643Z,94.33
2022-08-18T06:11:37.094Z,93.73
2022-08-18T06:14:03.839Z,93.62
2022-08-18T06:16:36.364Z,93.02
2022-08-18T06:19:36.018Z,93.45
2022-08-18T06:22:22.820Z,92.97
2022-08-18T06:25:34.204Z,93.14
2022-08-18T06:28:00.584Z,93.24
2022-08-18T06:30:41.903Z,92.60
2022-08-18T06:33:21.077Z,93.78
2022-08-18T06:35:54.983Z,95.10
2022-08-18T06:38:40.830Z,95.68
2022-08-18T06:41:37.926Z,94.12
2022-08-18T06:44:10.724Z,95.10
2022-08-18T06:47:04.057Z,94.27
2022-08-18T06:49:59.588Z,95.30
2022-08-18T06:52:29.095Z,95.07
2022-08-18T06:55:01.032Z,94.31
2022-08-18T06:57:38.259Z,95.17
2022-08-18T07:00:04.782Z,94.63
2022-08-18T07:02:47.027Z,93.95
2022-08-18T07:05:22.421Z,94.36
2022-08-18T07:08:18.537Z,93.61
2022-08-18T07:10:50.724Z,91.87
2022-08-18T07:13:27.775Z,92.32
2022-08-18T07:16:57.157Z,91.58
2022-08-18T07:19:27.628Z,89.85
2022-08-18T07:22:20.424Z,89.77
2022-08-18T07:25:04.614Z,89.66
2022-08-18T07:27:44.669Z,89.22
2022-08-18T07:30:36.545Z,87.40
2022-08-18T07:33:20.116Z,84.83
2022-08-18T07:35:57.043Z,85.30
2022-08-18T07:38:42.718Z,85.38
2022-08-18T07:41:24.050Z,83.72
2022-08-18T07:43:53.449Z,81.48
2022-08-18T07:46:45.612Z,82.99
2022-08-18T07:49:22.414Z,83.28
2022-08-18T07:51:59.457Z,83.04
2022-08-18T07:54:48.768Z,83.16
2022-08-18T07:57:24.711Z,82.80
2022-08-18T08:00:10.444Z,81.25
2022-08-18T08:03:04.572Z,79.72
2022-08-18T08:05:55.718Z,78.30
2022-08-18T08:08:52.015Z,79.04
2022-08-18T08:11:31.085Z,79.22
2022-08-18T08:14:03.686Z,78.84
2022-08-18T08:16:48.359Z,77.67
2022-08-18T08:19:56.713Z,79.08
2022-08-18T08:22:39.445Z,78.11
2022-08-18T08:25:42.585Z,77.22
2022-08-18T08:28:18.875Z,76.71
2022-08-18T08:31:39.759Z,77.20
2022-08-18T08:34:19.011Z,76.86
2022-08-18T08:36:47.183Z,76.23
2022-08-18T08:39:19.475Z,75.97
2022-08-18T08:41:51.085Z,74.98
2022-08-18T08:44:29.886Z,74.76
2022-08-18T08:47:07.936Z,75.05
2022-08-18T08:50:04.617Z,75.81
2022-08-18T08:52:44.478Z,75.72
2022-08-18T08:55:17.873Z,74.52
2022-08-18T08:57:58.922Z,74.92
2022-08-18T09:00:25.627Z,75.24
2022-08-18T09:02:59.499Z,74.07
2022-08-18T09:05:41.752Z,74.40
2022-08-18T09:08:26.966Z,74.39
2022-08-18T09:11:15.084Z,74.23
2022-08-18T09:14:08.377Z,73.46
2022-08-18T09:16:49.384Z,74.15
2022-08-18T09:19:36.034Z,73.81
2022-08-18T09:22:29.848Z,75.16
2022-08-18T09:24:57.454Z,74.62
2022-08-18T09:27:53.774Z,74.61
2022-08-18T09:30:47.869Z,74.33
2022-08-18T09:33:40.523Z,75.37
2022-08-18T09:36:28.644Z,75.33
2022-08-18T09:40:12.772Z,75.25
2022-08-18T09:45:34.322Z,75.46
2022-08-18T09:48:08.782Z,74.74
2022-08-18T09:50:52.948Z,75.04
2022-08-18T09:53:53.840Z,74.82
2022-08-18T09:56:54.179Z,75.73
2022-08-18T09:59:34.541Z,75.86
2022-08-18T10:02:06.297Z,75.76
2022-08-18T10:04:51.080Z,76.71
2022-08-18T10:07:19.586Z,75.17
2022-08-18T10:10:00.803Z,75.02
2022-08-18T10:12:37.720Z,76.88
2022-08-18T10:18:14.594Z,78.42
2022-08-18T10:20:54.026Z,79.02
2022-08-18T10:24:29.788Z,78.66
2022-08-18T10:26:54.633Z,77.61
2022-08-18T10:29:27.793Z,78.20
2022-08-18T10:31:57.492Z,77.08
2022-08-18T10:37:43.414Z,76.13
2022-08-18T10:40:10.038Z,74.95
2022-08-18T10:42:53.845Z,74.43
2022-08-18T10:45:30.509Z,73.30
2022-08-18T10:48:17.274Z,72.71
2022-08-18T10:51:22.943Z,72.23
2022-08-18T10:54:19.592Z,70.63
2022-08-18T10:57:05.961Z,69.09
2022-08-18T10:59:47.768Z,67.87
2022-08-18T11:05:45.211Z,67.63
2022-08-18T11:08:20.088Z,67.02
2022-08-18T11:11:32.726Z,66.17
2022-08-18T11:13:37.273Z,67.26
2022-08-18T11:16:14.328Z,68.64
2022-08-18T11:18:49.092Z,67.83
2022-08-18T11:21:42.572Z,67.03
2022-08-18T11:27:29.714Z,66.30
2022-08-18T11:30:01.453Z,66.16
2022-08-18T11:32:32.501Z,65.75
2022-08-18T11:35:07.633Z,63.88
2022-08-18T11:37:53.330Z,63.82
2022-08-18T11:43:17.215Z,63.67
2022-08-18T11:45:57.300Z,64.46
2022-08-18T11:51:17.539Z,62.68
2022-08-18T11:53:55.589Z,61.91
2022-08-18T11:56:38.583Z,63.47
2022-08-18T11:59:06.769Z,63.57
2022-08-18T12:01:40.923Z,61.88
2022-08-18T12:04:16.592Z,62.29
2022-08-18T12:06:59.937Z,62.48
2022-08-18T12:12:28.401Z,62.13
2022-08-18T12:15:17.607Z,59.75
2022-08-18T12:17:52.723Z,58.78
2022-08-18T12:20:21.582Z,59.25
2022-08-18T12:22:49.778Z,59.19
2022-08-18T12:25:24.682Z,58.35
2022-08-18T12:27:52.187Z,59.15
2022-08-18T12:30:19.182Z,59.40
2022-08-18T12:35:32.660Z,57.30
2022-08-18T12:38:11.069Z,57.17
2022-08-18T12:40:40.858Z,58.27
2022-08-18T12:43:07.566Z,58.98
2022-08-18T12:45:34.449Z,58.86
2022-08-18T12:48:04.719Z,58.80
2022-08-18T12:50:39.112Z,57.35
2022-08-18T12:53:10.650Z,57.51
2022-08-18T12:55:45.904Z,56.32
2022-08-18T12:58:12.802Z,56.28
2022-08-18T13:00:40.831Z,57.33
2022-08-18T13:03:07.899Z,57.62
2022-08-18T13:05:37.349Z,56.76
2022-08-18T13:08:05.796Z,56.03
2022-08-18T13:10:42.822Z,56.19
2022-08-18T13:13:14.668Z,56.29
2022-08-18T13:15:51.756Z,55.94
2022-08-18T13:18:27.246Z,55.16
2022-08-18T13:20:55.221Z,54.64
2022-08-18T13:23:24.974Z,52.64
2022-08-18T13:25:52.181Z,54.11
2022-08-18T13:28:30.250Z,53.66
2022-08-18T13:30:57.248Z,53.03
2022-08-18T13:33:56.106Z,53.89
2022-08-18T13:36:11.952Z,52.55
2022-08-18T13:38:40.403Z,51.17
2022-08-18T13:41:15.858Z,52.43
2022-08-18T13:43:44.423Z,52.17
2022-08-18T13:46:15.506Z,51.92
2022-08-18T13:48:42.875Z,52.93
2022-08-18T13:51:17.200Z,53.92
2022-08-18T13:53:57.455Z,54.09
2022-08-18T13:56:31.440Z,54.56
2022-08-18T13:58:58.240Z,54.88
2022-08-18T14:01:44.831Z,55.43
2022-08-18T14:04:14.837Z,56.06
2022-08-18T14:06:46.843Z,55.44
2022-08-18T14:09:20.000Z,54.26
2022-08-18T14:11:54.976Z,56.70
2022-08-18T14:14:21.762Z,55.48
2022-08-18T14:16:48.273Z,56.95
2022-08-18T14:19:33.364Z,56.98
2022-08-18T14:22:18.736Z,57.18
2022-08-18T14:25:03.511Z,57.30
2022-08-18T14:27:34.971Z,56.55
2022-08-18T14:30:10.833Z,56.55
2022-08-18T14:32:49.042Z,55.46
2022-08-18T14:35:28.554Z,55.39
2022-08-18T14:38:01.600Z,53.74
2022-08-18T14:40:29.826Z,53.90
2022-08-18T14:42:57.155Z,54.75
2022-08-18T14:45:31.698Z,54.82
2022-08-18T14:48:01.693Z,55.00
2022-08-18T14:50:29.441Z,55.68
2022-08-18T14:52:56.992Z,55.57
2022-08-18T14:55:26.812Z,56.16
2022-08-18T14:57:53.647Z,55.42
2022-08-18T15:00:22.705Z,56.08
2022-08-18T15:02:49.835Z,56.02
2022-08-18T15:05:19.704Z,56.54
2022-08-18T15:07:51.018Z,57.43
2022-08-18T15:10:19.981Z,57.43
2022-08-18T15:12:50.770Z,58.75
2022-08-18T15:15:18.508Z,57.16
2022-08-18T15:17:45.373Z,57.89
2022-08-18T15:20:18.942Z,57.94
2022-08-18T15:23:04.647Z,57.99
2022-08-18T15:25:44.663Z,57.92
2022-08-18T15:28:21.382Z,57.01
2022-08-18T15:30:51.716Z,57.48
2022-08-18T15:33:23.555Z,57.36
2022-08-18T15:35:51.334Z,57.33
2022-08-18T15:38:21.029Z,57.35
2022-08-18T15:40:52.936Z,57.06
2022-08-18T15:43:25.342Z,56.79
2022-08-18T15:45:57.899Z,55.92
2022-08-18T15:48:26.415Z,55.05
2022-08-18T15:50:53.255Z,54.80
2022-08-18T15:53:25.456Z,55.61
2022-08-18T15:55:56.439Z,55.45
2022-08-18T15:58:26.655Z,55.60
2022-08-18T16:00:53.569Z,56.14
2022-08-18T16:03:21.183Z,56.59
2022-08-18T16:05:53.085Z,57.50
2022-08-18T16:08:21.678Z,57.59
2022-08-18T16:10:48.624Z,58.56
2022-08-18T16:13:15.052Z,58.46
2022-08-18T16:15:46.514Z,59.26
2022-08-18T16:18:13.654Z,59.18
2022-08-18T16:20:41.087Z,59.81
2022-08-18T16:23:07.538Z,59.95
2022-08-18T16:25:34.054Z,59.77
2022-08-18T16:28:01.192Z,60.47
2022-08-18T16:30:29.057Z,59.99
2022-08-18T16:33:01.225Z,58.99
2022-08-18T16:35:27.982Z,59.69
2022-08-18T16:37:54.762Z,59.44
2022-08-18T16:40:21.164Z,59.85
2022-08-18T16:42:48.762Z,60.42
2022-08-18T16:45:20.837Z,60.64
2022-08-18T16:47:47.513Z,60.82
2022-08-18T16:50:18.112Z,60.39
2022-08-18T16:52:44.823Z,60.31
2022-08-18T16:55:12.346Z,60.67
2022-08-18T16:57:58.559Z,60.74
2022-08-18T17:00:44.747Z,61.12
2022-08-18T17:03:30.582Z,62.63
2022-08-18T17:06:00.797Z,62.00
2022-08-18T17:08:27.465Z,61.90
2022-08-18T17:10:54.951Z,61.86
2022-08-18T17:13:21.378Z,61.13
2022-08-18T17:15:50.245Z,60.61
2022-08-18T17:18:17.155Z,61.44
2022-08-18T17:20:43.598Z,60.82
2022-08-18T17:23:10.099Z,61.04
2022-08-18T17:25:36.931Z,61.35
2022-08-18T17:28:05.262Z,61.35
2022-08-18T17:30:45.451Z,61.63
2022-08-18T17:33:21.043Z,62.10
2022-08-18T17:35:47.809Z,62.56
2022-08-18T17:38:38.591Z,63.40
2022-08-18T17:41:06.115Z,63.63
2022-08-18T17:43:36.111Z,63.62
2022-08-18T17:46:26.447Z,63.95
2022-08-18T17:49:17.723Z,64.13
2022-08-18T17:51:52.630Z,64.60
2022-08-18T17:54:42.003Z,64.30
2022-08-18T17:57:12.724Z,64.19
2022-08-18T17:59:53.912Z,64.90
2022-08-18T18:02:30.299Z,64.48
2022-08-18T18:05:00.502Z,64.80
2022-08-18T18:07:52.808Z,64.91
2022-08-18T18:10:34.095Z,64.64
2022-08-18T18:13:32.253Z,64.60
2022-08-18T18:16:19.970Z,64.64
2022-08-18T18:18:56.471Z,65.11
2022-08-18T18:22:00.548Z,65.35
2022-08-18T18:24:15.231Z,65.05
2022-08-18T18:26:48.058Z,64.59
2022-08-18T18:29:19.668Z,64.87
2022-08-18T18:31:58.339Z,64.86
2022-08-18T18:34:44.024Z,64.48
2022-08-18T18:37:29.808Z,64.53
2022-08-18T18:40:06.737Z,64.94
2022-08-18T18:42:35.979Z,64.01
2022-08-18T18:45:09.305Z,63.83
2022-08-18T18:47:55.957Z,64.73
2022-08-18T18:51:10.982Z,64.85
2022-08-18T18:54:10.665Z,64.36
2022-08-18T18:56:50.412Z,64.17
2022-08-18T18:59:59.150Z,64.12
2022-08-18T19:02:36.147Z,64.25
2022-08-18T19:05:31.026Z,64.18
2022-08-18T19:08:03.766Z,64.27
2022-08-18T19:10:58.620Z,65.11
2022-08-18T19:13:33.074Z,65.16
2022-08-18T19:16:09.614Z,65.22
2022-08-18T19:18:45.517Z,64.97
2022-08-18T19:22:04.371Z,65.48
2022-08-18T19:24:22.629Z,64.75
2022-08-18T19:26:52.254Z,64.89
2022-08-18T19:29:32.668Z,65.33
2022-08-18T19:32:05.644Z,65.38
2022-08-18T19:34:38.061Z,65.39
2022-08-18T19:37:40.319Z,65.07
2022-08-18T19:40:20.767Z,65.27
2022-08-18T19:42:58.567Z,65.18
2022-08-18T19:45:33.325Z,65.27
2022-08-18T19:48:18.509Z,66.20
2022-08-18T19:50:59.698Z,66.77
2022-08-18T19:53:26.043Z,67.28
2022-08-18T19:56:10.667Z,66.84
2022-08-18T19:59:04.952Z,66.91
2022-08-18T20:01:52.893Z,67.15
2022-08-18T20:04:22.102Z,67.55
2022-08-18T20:07:22.584Z,67.83
2022-08-18T20:09:54.333Z,67.03
2022-08-18T20:12:24.011Z,68.07
2022-08-18T20:15:23.030Z,67.67
2022-08-18T20:17:58.608Z,67.61
2022-08-18T20:20:36.050Z,67.03
2022-08-18T20:23:30.337Z,67.34
2022-08-18T20:25:56.895Z,68.06
2022-08-18T20:28:36.778Z,67.78
2022-08-18T20:31:06.055Z,68.54
2022-08-18T20:33:37.955Z,67.69
2022-08-18T20:36:28.881Z,67.41
2022-08-18T20:38:58.583Z,66.91
2022-08-18T20:41:43.603Z,68.38
2022-08-18T20:44:21.840Z,67.09
2022-08-18T20:47:29.783Z,69.10
2022-08-18T20:50:34.002Z,68.45
2022-08-18T20:53:26.910Z,68.62
2022-08-18T20:56:32.103Z,69.11
2022-08-18T20:59:09.230Z,69.31
2022-08-18T21:01:37.108Z,69.72
2022-08-18T21:04:05.820Z,69.37
2022-08-18T21:06:37.349Z,69.91
2022-08-18T21:09:04.729Z,69.90
2022-08-18T21:11:33.949Z,70.53
2022-08-18T21:14:04.364Z,71.27
2022-08-18T21:16:39.152Z,72.28
2022-08-18T21:19:24.046Z,72.39
2022-08-18T21:22:00.606Z,73.68
2022-08-18T21:24:40.851Z,73.47
2022-08-18T21:27:30.275Z,74.07
2022-08-18T21:30:01.235Z,75.06
2022-08-18T21:32:34.590Z,74.63
2022-08-18T21:35:09.993Z,75.04
2022-08-18T21:37:40.975Z,75.76
2022-08-18T21:40:08.112Z,75.92
2022-08-18T21:42:44.574Z,76.09
2022-08-18T21:45:17.621Z,75.84
2022-08-18T21:47:58.761Z,75.86
2022-08-18T21:50:34.011Z,76.75
2022-08-18T21:53:07.777Z,76.70
2022-08-18T21:55:42.290Z,77.54
2022-08-18T21:58:18.004Z,76.76
2022-08-18T22:01:06.365Z,76.50
2022-08-18T22:03:35.091Z,75.48
2022-08-18T22:06:32.700Z,75.91
2022-08-18T22:09:23.315Z,75.43
2022-08-18T22:12:36.724Z,76.30
2022-08-18T22:15:12.038Z,75.10
2022-08-18T22:17:51.690Z,76.48
2022-08-18T22:20:43.289Z,77.69
2022-08-18T22:23:31.499Z,77.90
2022-08-18T22:26:16.317Z,78.40
2022-08-18T22:29:01.685Z,78.68
2022-08-18T22:31:32.477Z,78.80
2022-08-18T22:34:05.077Z,77.99
2022-08-18T22:36:36.160Z,77.73
2022-08-18T22:39:04.524Z,77.50
2022-08-18T22:41:35.564Z,77.73
2022-08-18T22:44:03.858Z,77.85
2022-08-18T22:46:30.271Z,77.22
2022-08-18T22:48:56.703Z,77.67
2022-08-18T22:51:25.482Z,76.94
2022-08-18T22:53:52.370Z,77.33
2022-08-18T22:56:24.607Z,77.43
2022-08-18T22:59:00.833Z,78.31
2022-08-18T23:01:37.949Z,78.34
2022-08-18T23:04:05.655Z,78.70
2022-08-18T23:06:32.108Z,78.78
2022-08-18T23:09:00.539Z,78.80
2022-08-18T23:11:28.864Z,79.55
2022-08-18T23:13:56.273Z,78.90
2022-08-18T23:16:31.405Z,77.58
2022-08-18T23:19:03.389Z,78.60
2022-08-18T23:21:35.181Z,79.18
2022-08-18T23:24:04.560Z,76.36
2022-08-18T23:26:30.995Z,77.03
2022-08-18T23:28:57.566Z,77.91
2022-08-18T23:31:24.053Z,77.78
2022-08-18T23:33:50.504Z,78.60
2022-08-18T23:36:17.679Z,79.11
2022-08-18T23:38:44.689Z,78.39
2022-08-18T23:41:12.930Z,78.39
2022-08-18T23:43:39.443Z,78.65
2022-08-18T23:46:05.956Z,78.62
2022-08-18T23:48:32.456Z,77.55
2022-08-18T23:51:03.094Z,77.06
2022-08-18T23:53:31.134Z,77.72
2022-08-18T23:55:57.733Z,77.51
2022-08-18T23:58:24.310Z,76.70
